Wednesday, May 23, 2018, 9:06 AM EDT
Back to Local

KMLT, Millinocket Municipal Airport

Location: Millinocket, ME, United States Lat: 45.65
Local Time: 9:06 AM EDT (13:06 GMT) Lon: -68.7
Time Zone: US/Eastern Elev: 406 ft

Show me the last for .
Show Decoded

2018-05-23 08:53 METAR KMLT 231253Z AUTO 27006KT 10SM SCT038 17/11 A2982 RMK AO2 SLP103 T01670106
                 =
2018-05-23 07:53 METAR KMLT 231153Z AUTO 00000KT 10SM SCT006 BKN037 14/12 A2983 RMK AO2 SLP106
                 60004 70009 T01390117 10139 20117 53003 =
2018-05-23 07:45 METAR KMLT 231145Z AUTO 00000KT 10SM SCT006 BKN037 13/12 A2983 RMK AO2 T01330117
                 =
2018-05-23 07:18 METAR KMLT 231118Z AUTO VRB04KT 10SM BKN007 13/12 A2983 RMK AO2 T01330117 =
2018-05-23 06:53 METAR KMLT 231053Z AUTO 00000KT 10SM FEW006 13/11 A2983 RMK AO2 SLP105 T01280111
                 =
2018-05-23 06:41 METAR KMLT 231041Z AUTO 00000KT 10SM FEW006 12/11 A2983 RMK AO2 T01220111 =
2018-05-23 05:53 METAR KMLT 230953Z AUTO 00000KT 10SM BKN038 12/11 A2982 RMK AO2 SLP102 T01170106
                 =
2018-05-23 04:53 METAR KMLT 230853Z AUTO 00000KT 10SM FEW024 OVC043 12/11 A2982 RMK AO2 SLP103
                 60004 T01220106 57003 =
2018-05-23 04:48 METAR KMLT 230848Z AUTO 00000KT 10SM SCT024 OVC043 12/11 A2982 RMK AO2 =
2018-05-23 04:24 METAR KMLT 230824Z AUTO 00000KT 10SM BKN024 BKN041 12/11 A2984 RMK AO2 T01220111
                 =
2018-05-23 03:53 METAR KMLT 230753Z AUTO 00000KT 8SM FEW026 BKN041 BKN075 12/11 A2983 RMK AO2
                 SLP105 T01220111 =
2018-05-23 03:50 METAR KMLT 230750Z AUTO 00000KT 8SM SCT024 BKN041 OVC090 12/11 A2983 RMK AO2 =
2018-05-23 03:28 METAR KMLT 230728Z AUTO 00000KT 10SM BKN023 OVC034 13/11 A2985 RMK AO2 T01280111
                 =
2018-05-23 02:53 METAR KMLT 230653Z AUTO 00000KT 10SM BKN040 OVC050 13/11 A2985 RMK AO2 RAE52
                 SLP113 P0004 T01280111 =
2018-05-23 01:53 METAR KMLT 230553Z AUTO 00000KT 7SM -RA OVC050 13/11 A2987 RMK AO2 SLP117 P0005
                 60005 T01280111 10194 20128 56010 =
2018-05-23 00:53 METAR KMLT 230453Z AUTO VRB03KT 9SM -RA OVC050 15/09 A2987 RMK AO2 RAB03E18B51
                 SLP119 P0000 T01500094 402390039 =
2018-05-22 23:53 METAR KMLT 230353Z AUTO 00000KT 10SM OVC070 16/09 A2988 RMK AO2 SLP122 T01560089
                 =
2018-05-22 22:53 METAR KMLT 230253Z AUTO 00000KT 10SM OVC075 17/08 A2990 RMK AO2 SLP128 T01670083
                 58014 =
2018-05-22 21:53 METAR KMLT 230153Z AUTO VRB03KT 10SM OVC080 17/08 A2992 RMK AO2 SLP135 T01720083
                 =
2018-05-22 20:53 METAR KMLT 230053Z AUTO 24004KT 10SM BKN110 18/08 A2993 RMK AO2 SLP139 T01830078
                 =
2018-05-22 19:53 METAR KMLT 222353Z AUTO VRB03KT 10SM CLR 19/06 A2994 RMK AO2 SLP144 T01940061
                 10239 20194 56015 =
2018-05-22 18:53 METAR KMLT 222253Z AUTO VRB05KT 10SM SCT110 20/05 A2995 RMK AO2 SLP146 T02000050
                 =
2018-05-22 17:53 METAR KMLT 222153Z AUTO VRB03KT 10SM FEW120 21/04 A2997 RMK AO2 SLP156 T02110039
                 =
2018-05-22 16:53 METAR KMLT 222053Z AUTO 10SM CLR 22/03 A2998 RMK AO2 SLP158 T02220033 56026 =
2018-05-22 15:53 METAR KMLT 221953Z AUTO 22007KT 190V250 10SM CLR 23/04 A3000 RMK AO2 SLP165
                 T02330039 =
2018-05-22 14:53 METAR KMLT 221853Z AUTO VRB04KT 10SM CLR 23/03 A3003 RMK AO2 SLP174 T02280033 =
2018-05-22 13:53 METAR KMLT 221753Z AUTO VRB06G15KT 10SM CLR 22/03 A3006 RMK AO2 SLP185 T02220033
                 10228 20111 56026 =
2018-05-22 12:53 METAR KMLT 221653Z AUTO 17007KT 130V190 10SM CLR 22/03 A3009 RMK AO2 SLP193
                 T02170028 =
2018-05-22 11:53 METAR KMLT 221553Z AUTO 19006KT 10SM CLR 20/02 A3011 RMK AO2 SLP203 T02000017 =
2018-05-22 10:53 METAR KMLT 221453Z AUTO 22007KT 160V280 10SM CLR 18/01 A3014 RMK AO2 SLP212
                 T01830006 58015 =
2018-05-22 09:53 METAR KMLT 221353Z AUTO VRB03KT 10SM CLR 17/M01 A3016 RMK AO2 SLP218 T01721011 =

Support USWX by starting your Amazon purchase here.